createdAt,value
2022-09-16T00:01:20.537Z,0.25
2022-09-16T00:06:27.286Z,0.23
2022-09-16T00:11:33.635Z,0.30
2022-09-16T00:16:40.305Z,0.34
2022-09-16T00:21:46.637Z,0.33
2022-09-16T00:26:53.327Z,0.31
2022-09-16T00:31:59.732Z,0.28
2022-09-16T00:37:06.510Z,0.36
2022-09-16T00:42:12.886Z,0.22
2022-09-16T00:47:19.651Z,0.24
2022-09-16T00:52:26.021Z,0.29
2022-09-16T00:57:32.829Z,0.31
2022-09-16T01:02:39.205Z,0.22
2022-09-16T01:07:46.421Z,0.21
2022-09-16T01:12:52.806Z,0.18
2022-09-16T01:17:59.444Z,0.19
2022-09-16T01:23:05.777Z,0.29
2022-09-16T01:28:12.481Z,0.21
2022-09-16T01:33:18.849Z,0.23
2022-09-16T01:38:25.562Z,0.28
2022-09-16T01:43:31.923Z,0.28
2022-09-16T01:48:38.668Z,0.26
2022-09-16T01:53:45.015Z,0.24
2022-09-16T01:58:51.725Z,0.14
2022-09-16T02:03:58.445Z,0.19
2022-09-16T02:09:05.981Z,0.12
2022-09-16T02:14:12.308Z,0.24
2022-09-16T02:19:20.210Z,0.26
2022-09-16T02:24:26.538Z,0.23
2022-09-16T02:29:33.192Z,0.29
2022-09-16T02:34:39.543Z,0.22
2022-09-16T02:39:46.273Z,0.22
2022-09-16T02:44:52.539Z,0.22
2022-09-16T02:49:59.898Z,0.28
2022-09-16T02:55:06.243Z,0.23
2022-09-16T03:00:13.549Z,0.17
2022-09-16T03:05:19.920Z,0.19
2022-09-16T03:10:26.917Z,0.25
2022-09-16T03:15:33.324Z,0.19
2022-09-16T03:20:40.017Z,0.24
2022-09-16T03:25:46.360Z,0.13
2022-09-16T03:30:53.120Z,0.21
2022-09-16T03:35:59.478Z,0.29
2022-09-16T03:41:06.160Z,0.19
2022-09-16T03:46:12.539Z,0.20
2022-09-16T03:51:19.907Z,0.20
2022-09-16T03:56:26.248Z,0.20
2022-09-16T04:01:33.060Z,0.27
2022-09-16T04:06:40.085Z,0.19
2022-09-16T04:11:47.297Z,0.31
2022-09-16T04:16:53.646Z,0.18
2022-09-16T04:22:00.469Z,0.26
2022-09-16T04:27:06.817Z,0.22
2022-09-16T04:32:13.458Z,0.19
2022-09-16T04:37:19.840Z,0.14
2022-09-16T04:42:26.504Z,0.31
2022-09-16T04:47:33.025Z,0.17
2022-09-16T04:52:39.741Z,0.14
2022-09-16T04:57:49.405Z,0.24
2022-09-16T05:02:56.037Z,0.24
2022-09-16T05:08:02.786Z,0.16
2022-09-16T05:13:09.976Z,0.12
2022-09-16T05:18:16.303Z,0.35
2022-09-16T05:23:23.085Z,0.16
2022-09-16T05:28:29.424Z,0.24
2022-09-16T05:33:36.202Z,0.24
2022-09-16T05:38:50.732Z,0.14
2022-09-16T05:43:49.950Z,0.21
2022-09-16T05:48:56.849Z,0.33
2022-09-16T05:54:03.877Z,0.20
2022-09-16T05:59:10.247Z,0.24
2022-09-16T06:04:16.965Z,0.19
2022-09-16T06:09:23.470Z,0.22
2022-09-16T06:14:30.671Z,0.24
2022-09-16T06:19:36.990Z,0.17
2022-09-16T06:29:53.352Z,0.18
2022-09-16T06:40:10.409Z,0.29
2022-09-16T06:45:14.245Z,0.24
2022-09-16T06:55:36.546Z,0.24
2022-09-16T07:00:22.807Z,0.24
2022-09-16T07:05:41.355Z,0.30
2022-09-16T07:10:34.366Z,0.18
2022-09-16T07:16:09.313Z,0.18
2022-09-16T07:20:51.430Z,0.24
2022-09-16T07:26:01.186Z,0.18
2022-09-16T07:30:58.708Z,0.13
2022-09-16T07:36:06.076Z,0.21
2022-09-16T07:41:12.445Z,0.22
2022-09-16T07:46:21.112Z,0.29
2022-09-16T07:51:27.558Z,0.19
2022-09-16T07:56:34.912Z,0.24
2022-09-16T08:01:43.687Z,0.35
2022-09-16T08:06:49.747Z,0.20
2022-09-16T08:11:56.101Z,0.39
2022-09-16T08:17:03.606Z,0.44
2022-09-16T08:22:09.985Z,0.27
2022-09-16T08:27:21.883Z,0.37
2022-09-16T08:32:19.801Z,0.48
2022-09-16T08:37:46.942Z,0.31
2022-09-16T08:42:31.185Z,0.30
2022-09-16T08:47:44.060Z,0.39
2022-09-16T08:52:42.420Z,0.24
2022-09-16T08:57:51.777Z,0.34
2022-09-16T09:03:00.661Z,0.35
2022-09-16T09:08:10.781Z,0.30
2022-09-16T09:13:09.800Z,0.32
2022-09-16T09:18:16.492Z,0.31
2022-09-16T09:23:23.013Z,0.33
2022-09-16T09:28:30.412Z,0.33
2022-09-16T09:33:46.448Z,0.33
2022-09-16T09:38:43.387Z,0.31
2022-09-16T09:43:50.047Z,0.24
2022-09-16T09:48:56.896Z,0.28
2022-09-16T09:54:03.340Z,0.20
2022-09-16T09:59:10.304Z,0.30
2022-09-16T10:04:18.020Z,0.22
2022-09-16T10:09:24.520Z,0.38
2022-09-16T10:14:30.996Z,0.21
2022-09-16T10:19:38.382Z,0.28
2022-09-16T10:24:44.954Z,0.28
2022-09-16T10:29:52.558Z,0.44
2022-09-16T10:34:58.937Z,0.38
2022-09-16T10:40:05.765Z,0.37
2022-09-16T10:45:12.188Z,0.47
2022-09-16T10:50:19.015Z,0.31
2022-09-16T10:55:25.556Z,0.22
2022-09-16T11:00:33.333Z,0.57
2022-09-16T11:05:39.690Z,0.35
2022-09-16T11:10:47.378Z,0.41
2022-09-16T11:15:53.847Z,0.37
2022-09-16T11:21:00.607Z,0.34
2022-09-16T11:26:07.668Z,0.37
2022-09-16T11:31:15.459Z,0.32
2022-09-16T11:36:21.665Z,0.41
2022-09-16T11:41:28.501Z,0.38
2022-09-16T11:46:34.946Z,0.29
2022-09-16T11:51:41.907Z,0.40
2022-09-16T11:56:48.338Z,0.51
2022-09-16T12:01:55.204Z,0.30
2022-09-16T12:07:01.542Z,0.28
2022-09-16T12:12:08.343Z,0.34
2022-09-16T12:17:14.900Z,0.28
2022-09-16T12:22:21.670Z,0.21
2022-09-16T12:27:28.585Z,0.32
2022-09-16T12:32:35.435Z,0.34
2022-09-16T12:37:41.930Z,0.42
2022-09-16T12:42:48.833Z,0.23
2022-09-16T12:47:55.471Z,0.42
2022-09-16T12:53:02.185Z,0.35
2022-09-16T12:58:10.209Z,0.34
2022-09-16T13:03:17.034Z,0.28
2022-09-16T13:08:23.411Z,0.43
2022-09-16T13:13:30.308Z,0.34
2022-09-16T13:18:36.767Z,0.51
2022-09-16T13:23:44.375Z,0.42
2022-09-16T13:28:51.487Z,0.30
2022-09-16T13:33:58.939Z,0.41
2022-09-16T13:39:05.423Z,0.36
2022-09-16T13:44:12.192Z,0.38
2022-09-16T13:49:18.602Z,0.40
2022-09-16T13:54:25.364Z,0.39
2022-09-16T13:59:32.003Z,0.43
2022-09-16T14:04:39.016Z,0.48
2022-09-16T14:09:47.870Z,0.48
2022-09-16T14:14:51.681Z,0.55
2022-09-16T14:19:58.110Z,0.39
2022-09-16T14:25:06.548Z,0.75
2022-09-16T14:30:13.839Z,0.70
2022-09-16T14:35:20.306Z,0.55
2022-09-16T14:40:26.901Z,0.53
2022-09-16T14:45:33.595Z,0.50
2022-09-16T14:50:39.946Z,0.51
2022-09-16T14:55:46.647Z,0.57
2022-09-16T15:00:53.063Z,0.61
2022-09-16T15:05:59.773Z,0.60
2022-09-16T15:11:07.724Z,0.54
2022-09-16T15:16:12.495Z,0.55
2022-09-16T15:21:18.837Z,0.49
2022-09-16T15:26:26.151Z,0.53
2022-09-16T15:31:32.910Z,0.49
2022-09-16T15:36:39.628Z,0.61
2022-09-16T15:41:45.984Z,0.50
2022-09-16T15:46:53.224Z,0.56
2022-09-16T15:51:59.592Z,0.74
2022-09-16T15:57:06.208Z,0.73
2022-09-16T16:02:12.605Z,0.80
2022-09-16T16:07:19.995Z,0.49
2022-09-16T16:12:26.382Z,0.68
2022-09-16T16:17:33.780Z,0.57
2022-09-16T16:22:41.287Z,0.74
2022-09-16T16:27:48.748Z,0.67
2022-09-16T16:32:55.349Z,0.82
2022-09-16T16:38:02.890Z,0.70
2022-09-16T16:43:09.265Z,0.77
2022-09-16T16:48:16.857Z,0.53
2022-09-16T16:53:23.185Z,0.76
2022-09-16T16:58:29.946Z,0.79
2022-09-16T17:03:36.303Z,0.79
2022-09-16T17:08:43.856Z,0.56
2022-09-16T17:13:50.353Z,0.64
2022-09-16T17:18:57.804Z,0.76
2022-09-16T17:24:04.120Z,0.70
2022-09-16T17:29:15.017Z,0.72
2022-09-16T17:34:17.085Z,0.68
2022-09-16T17:39:23.959Z,0.51
2022-09-16T17:44:30.479Z,0.58
2022-09-16T17:49:37.412Z,0.58
2022-09-16T17:54:43.776Z,0.46
2022-09-16T17:59:50.646Z,0.63
2022-09-16T18:04:57.116Z,0.68
2022-09-16T18:10:03.953Z,0.74
2022-09-16T18:15:10.337Z,0.59
2022-09-16T18:20:17.088Z,0.58
2022-09-16T18:25:23.438Z,0.66
2022-09-16T18:30:30.251Z,0.74
2022-09-16T18:35:36.714Z,0.92
2022-09-16T18:40:43.445Z,0.59
2022-09-16T18:45:51.111Z,0.69
2022-09-16T18:50:57.895Z,0.77
2022-09-16T18:56:04.293Z,0.87
2022-09-16T19:01:12.001Z,0.70
2022-09-16T19:06:18.366Z,0.81
2022-09-16T19:11:25.170Z,0.77
2022-09-16T19:16:31.602Z,0.48
2022-09-16T19:21:38.120Z,0.71
2022-09-16T19:26:45.776Z,0.68
2022-09-16T19:31:55.081Z,0.67
2022-09-16T19:37:06.439Z,0.78
2022-09-16T19:47:13.434Z,0.63
2022-09-16T19:52:14.943Z,1.07
2022-09-16T19:57:14.194Z,0.84
2022-09-16T20:02:13.808Z,0.75
2022-09-16T20:07:25.642Z,0.63
2022-09-16T20:12:27.508Z,0.54
2022-09-16T20:17:24.338Z,0.60
2022-09-16T20:22:34.568Z,0.75
2022-09-16T20:27:35.383Z,0.71
2022-09-16T20:32:35.791Z,0.64
2022-09-16T20:37:32.502Z,0.65
2022-09-16T20:42:40.069Z,0.71
2022-09-16T20:47:46.843Z,0.51
2022-09-16T20:52:58.278Z,0.90
2022-09-16T20:57:54.426Z,0.90
2022-09-16T21:03:03.259Z,0.48
2022-09-16T21:08:10.289Z,0.73
2022-09-16T21:13:19.516Z,0.50
2022-09-16T21:18:25.910Z,0.85
2022-09-16T21:23:32.500Z,0.65
2022-09-16T21:28:38.843Z,0.90
2022-09-16T21:33:46.199Z,0.90
2022-09-16T21:38:52.554Z,0.62
2022-09-16T21:44:00.016Z,0.63
2022-09-16T21:49:06.355Z,0.70
2022-09-16T21:54:16.565Z,0.61
2022-09-16T21:59:18.912Z,0.58
2022-09-16T22:04:26.438Z,0.74
2022-09-16T22:09:32.845Z,0.56
2022-09-16T22:14:39.447Z,0.82
2022-09-16T22:19:45.928Z,0.69
2022-09-16T22:24:52.676Z,0.65
2022-09-16T22:29:59.068Z,0.53
2022-09-16T22:35:05.826Z,0.63
2022-09-16T22:40:12.193Z,0.59
2022-09-16T22:45:18.864Z,0.46
2022-09-16T22:50:25.232Z,0.58
2022-09-16T22:55:32.021Z,0.79
2022-09-16T23:00:40.495Z,0.61
2022-09-16T23:05:44.575Z,0.73
2022-09-16T23:10:50.930Z,0.72
2022-09-16T23:15:57.627Z,0.64
2022-09-16T23:21:04.006Z,0.75
2022-09-16T23:26:10.688Z,0.61
2022-09-16T23:31:17.128Z,0.57
2022-09-16T23:36:23.784Z,0.57
2022-09-16T23:41:33.305Z,0.62
2022-09-16T23:46:40.024Z,0.45
2022-09-16T23:51:46.321Z,0.59
2022-09-16T23:56:53.038Z,0.47
